createdAt,value
2019-03-20T00:00:07.957Z,5.20
2019-03-20T00:05:05.070Z,4.40
2019-03-20T00:10:01.091Z,4.00
2019-03-20T00:14:57.003Z,4.70
2019-03-20T00:19:52.937Z,4.20
2019-03-20T00:24:49.579Z,4.13
2019-03-20T00:29:45.479Z,4.93
2019-03-20T00:34:41.394Z,4.53
2019-03-20T00:39:37.405Z,4.30
2019-03-20T00:44:33.315Z,4.77
2019-03-20T00:49:29.238Z,4.93
2019-03-20T00:54:31.291Z,4.20
2019-03-20T00:59:27.281Z,4.40
2019-03-20T01:04:23.207Z,4.33
2019-03-20T01:09:19.121Z,4.30
2019-03-20T01:14:15.047Z,4.77
2019-03-20T01:19:10.958Z,4.90
2019-03-20T01:24:11.201Z,5.30
2019-03-20T01:29:07.214Z,4.60
2019-03-20T01:34:03.259Z,5.37
2019-03-20T01:38:59.165Z,5.20
2019-03-20T01:43:55.068Z,4.20
2019-03-20T01:48:50.978Z,4.93
2019-03-20T01:53:48.536Z,4.80
2019-03-20T01:58:44.571Z,5.40
2019-03-20T02:03:40.956Z,4.10
2019-03-20T02:08:36.991Z,4.83
2019-03-20T02:13:32.904Z,5.57
2019-03-20T02:18:28.821Z,4.60
2019-03-20T02:23:24.707Z,4.43
2019-03-20T02:28:20.767Z,4.97
2019-03-20T02:33:16.675Z,5.60
2019-03-20T02:38:12.622Z,6.10
2019-03-20T02:43:08.503Z,6.03
2019-03-20T02:48:04.527Z,5.50
2019-03-20T02:53:00.445Z,6.33
2019-03-20T02:57:56.383Z,5.20
2019-03-20T03:02:52.296Z,5.13
2019-03-20T03:07:48.253Z,6.97
2019-03-20T03:12:44.262Z,5.70
2019-03-20T03:17:40.166Z,5.17
2019-03-20T03:22:36.079Z,6.00
2019-03-20T03:27:31.995Z,6.10
2019-03-20T03:32:27.951Z,4.93
2019-03-20T03:37:23.910Z,6.97
2019-03-20T03:42:19.826Z,7.80
2019-03-20T03:47:15.731Z,6.63
2019-03-20T03:52:11.667Z,6.97
2019-03-20T03:57:07.598Z,6.60
2019-03-20T04:02:03.607Z,6.60
2019-03-20T04:06:59.579Z,5.43
2019-03-20T04:11:55.487Z,6.53
2019-03-20T04:16:51.412Z,6.83
2019-03-20T04:21:47.349Z,8.00
2019-03-20T04:26:43.258Z,8.43
2019-03-20T04:31:39.229Z,8.80
2019-03-20T04:36:46.764Z,9.13
2019-03-20T04:41:33.003Z,10.67
2019-03-20T04:46:29.002Z,10.20
2019-03-20T04:51:24.911Z,10.93
2019-03-20T04:56:20.853Z,10.70
2019-03-20T05:01:16.762Z,11.63
2019-03-20T05:06:12.719Z,12.00
2019-03-20T05:11:09.022Z,11.00
2019-03-20T05:16:04.933Z,12.03
2019-03-20T05:21:00.858Z,11.47
2019-03-20T05:25:56.779Z,12.60
2019-03-20T05:30:52.718Z,11.90
2019-03-20T05:35:48.626Z,12.67
2019-03-20T05:40:44.533Z,12.50
2019-03-20T05:45:40.424Z,12.40
2019-03-20T05:50:36.347Z,13.33
2019-03-20T05:55:32.294Z,13.30
2019-03-20T06:00:30.132Z,11.93
2019-03-20T06:05:26.047Z,11.60
2019-03-20T06:10:21.960Z,11.97
2019-03-20T06:15:17.883Z,10.90
2019-03-20T06:20:14.097Z,11.20
2019-03-20T06:25:11.767Z,11.23
2019-03-20T06:30:18.183Z,11.70
2019-03-20T06:35:14.203Z,10.50
2019-03-20T06:40:17.129Z,11.63
2019-03-20T06:45:17.108Z,12.73
2019-03-20T06:50:15.454Z,11.93
2019-03-20T06:55:11.473Z,11.63
2019-03-20T07:00:32.086Z,12.53
2019-03-20T07:05:48.544Z,13.00
2019-03-20T07:10:50.872Z,13.63
2019-03-20T07:15:46.782Z,14.00
2019-03-20T07:20:42.702Z,14.43
2019-03-20T07:25:38.632Z,14.60
2019-03-20T07:30:34.542Z,15.13
2019-03-20T07:35:30.560Z,15.00
2019-03-20T07:40:26.466Z,15.77
2019-03-20T07:45:22.381Z,14.67
2019-03-20T07:50:18.290Z,13.80
2019-03-20T07:55:14.197Z,14.70
2019-03-20T08:00:12.120Z,13.93
2019-03-20T08:05:09.040Z,14.07
2019-03-20T08:10:11.987Z,14.50
2019-03-20T08:15:13.063Z,12.30
2019-03-20T08:20:11.574Z,14.60
2019-03-20T08:25:07.731Z,13.80
2019-03-20T08:30:07.452Z,12.50
2019-03-20T08:35:05.770Z,16.83
2019-03-20T08:40:02.798Z,14.47
2019-03-20T08:44:58.720Z,14.07
2019-03-20T08:49:54.632Z,15.00
2019-03-20T08:54:51.245Z,13.33
2019-03-20T08:59:47.223Z,13.93
2019-03-20T09:04:43.142Z,13.80
2019-03-20T09:09:39.049Z,15.33
2019-03-20T09:14:34.994Z,13.17
2019-03-20T09:19:30.900Z,15.03
2019-03-20T09:24:27.663Z,13.50
2019-03-20T09:29:23.588Z,14.07
2019-03-20T09:34:19.497Z,13.47
2019-03-20T09:39:15.413Z,12.80
2019-03-20T09:44:11.322Z,12.40
2019-03-20T09:49:07.263Z,7.10
2019-03-20T09:54:09.329Z,6.97
2019-03-20T09:59:05.379Z,6.13
2019-03-20T10:04:01.349Z,7.47
2019-03-20T10:08:57.246Z,5.50
2019-03-20T10:13:53.255Z,6.07
2019-03-20T10:18:49.176Z,8.93
2019-03-20T10:23:46.562Z,7.00
2019-03-20T10:28:42.571Z,8.37
2019-03-20T10:33:38.478Z,7.10
2019-03-20T10:38:35.263Z,5.40
2019-03-20T10:43:31.182Z,5.27
2019-03-20T10:48:27.199Z,8.73
2019-03-20T10:53:23.113Z,6.57
2019-03-20T10:58:19.063Z,8.40
2019-03-20T11:03:15.065Z,6.30
2019-03-20T11:08:12.926Z,8.80
2019-03-20T11:13:08.839Z,8.03
2019-03-20T11:18:04.754Z,7.70
2019-03-20T11:23:00.764Z,7.80
2019-03-20T11:27:56.685Z,9.40
2019-03-20T11:32:52.799Z,7.10
2019-03-20T11:37:48.769Z,8.40
2019-03-20T11:42:44.673Z,8.90
2019-03-20T11:47:40.584Z,8.90
2019-03-20T11:52:36.516Z,8.33
2019-03-20T11:57:32.454Z,8.17
2019-03-20T12:02:28.734Z,8.40
2019-03-20T12:07:24.887Z,9.80
2019-03-20T12:12:20.810Z,6.27
2019-03-20T12:17:16.749Z,8.47
2019-03-20T12:22:12.671Z,7.93
2019-03-20T12:27:15.130Z,6.40
2019-03-20T12:32:06.390Z,7.10
2019-03-20T12:37:02.312Z,5.37
2019-03-20T12:41:58.224Z,8.13
2019-03-20T12:46:54.132Z,8.30
2019-03-20T12:51:50.046Z,7.80
2019-03-20T12:56:46.000Z,9.10
2019-03-20T13:01:41.910Z,7.90
2019-03-20T13:06:39.352Z,8.70
2019-03-20T13:11:35.316Z,9.30
2019-03-20T13:16:32.048Z,9.10
2019-03-20T13:21:28.380Z,9.80
2019-03-20T13:26:24.457Z,9.50
2019-03-20T13:31:21.973Z,9.50
2019-03-20T13:36:18.500Z,5.50
2019-03-20T13:41:14.389Z,8.87
2019-03-20T13:46:10.352Z,6.13
2019-03-20T13:51:06.271Z,4.57
2019-03-20T13:56:02.349Z,6.13
2019-03-20T14:00:58.263Z,1.93
2019-03-20T14:05:54.185Z,5.43
2019-03-20T14:10:50.848Z,4.80
2019-03-20T14:15:46.978Z,4.47
2019-03-20T14:20:42.912Z,4.70
2019-03-20T14:25:38.889Z,4.17
2019-03-20T14:30:34.832Z,5.33
2019-03-20T14:35:30.755Z,4.43
2019-03-20T14:40:37.651Z,4.27
2019-03-20T14:45:28.342Z,3.63
2019-03-20T14:50:28.346Z,4.70
2019-03-20T14:55:24.390Z,3.37
2019-03-20T15:00:23.334Z,3.87
2019-03-20T15:05:19.278Z,4.03
2019-03-20T15:10:45.729Z,4.07
2019-03-20T15:15:41.317Z,4.07
2019-03-20T15:20:37.258Z,3.73
2019-03-20T15:25:33.195Z,4.10
2019-03-20T15:30:29.822Z,3.77
2019-03-20T15:35:25.965Z,4.30
2019-03-20T15:40:26.453Z,4.20
2019-03-20T15:45:22.383Z,4.30
2019-03-20T15:50:19.775Z,4.07
2019-03-20T15:55:22.605Z,3.30
2019-03-20T16:00:19.854Z,3.80
2019-03-20T16:05:17.171Z,3.73
2019-03-20T16:10:22.019Z,3.83
2019-03-20T16:15:19.844Z,4.10
2019-03-20T16:20:15.972Z,3.90
2019-03-20T16:25:18.973Z,4.33
2019-03-20T16:30:18.009Z,5.33
2019-03-20T16:35:13.937Z,3.83
2019-03-20T16:40:12.659Z,4.73
2019-03-20T16:45:35.217Z,4.53
2019-03-20T16:50:31.203Z,3.73
2019-03-20T16:55:27.422Z,4.77
2019-03-20T17:00:30.781Z,4.20
2019-03-20T17:05:31.020Z,4.20
2019-03-20T17:10:48.798Z,4.00
2019-03-20T17:15:52.048Z,4.83
2019-03-20T17:20:53.126Z,5.00
2019-03-20T17:25:51.166Z,4.90
2019-03-20T17:30:52.492Z,4.90
2019-03-20T17:35:52.707Z,5.27
2019-03-20T17:40:49.944Z,6.77
2019-03-20T17:45:51.725Z,6.97
2019-03-20T17:50:50.248Z,7.33
2019-03-20T17:55:51.894Z,7.63
2019-03-20T18:00:49.871Z,7.20
2019-03-20T18:05:45.946Z,10.90
2019-03-20T18:10:41.882Z,7.87
2019-03-20T18:15:37.810Z,6.77
2019-03-20T18:20:33.966Z,8.07
2019-03-20T18:25:30.415Z,6.03
2019-03-20T18:30:28.785Z,5.90
2019-03-20T18:35:24.801Z,6.40
2019-03-20T18:40:25.207Z,6.30
2019-03-20T18:45:25.966Z,6.50
2019-03-20T18:50:22.771Z,7.23
2019-03-20T18:55:19.858Z,6.90
2019-03-20T19:00:54.860Z,7.50
2019-03-20T19:05:57.307Z,7.17
2019-03-20T19:10:53.362Z,6.60
2019-03-20T19:15:49.386Z,9.47
2019-03-20T19:20:45.382Z,9.07
2019-03-20T19:25:41.645Z,10.13
2019-03-20T19:30:37.724Z,11.07
2019-03-20T19:35:33.661Z,9.90
2019-03-20T19:40:29.598Z,10.70
2019-03-20T19:45:25.521Z,9.77
2019-03-20T19:50:22.347Z,10.67
2019-03-20T19:55:19.079Z,10.60
2019-03-20T20:00:21.431Z,11.77
2019-03-20T20:05:17.453Z,10.83
2019-03-20T20:10:17.501Z,9.67
2019-03-20T20:15:27.212Z,10.27
2019-03-20T20:20:28.929Z,9.50
2019-03-20T20:25:25.550Z,10.30
2019-03-20T20:30:21.536Z,9.53
2019-03-20T20:35:17.456Z,9.90
2019-03-20T20:40:17.819Z,10.30
2019-03-20T20:45:13.742Z,12.10
2019-03-20T20:50:12.564Z,11.23
2019-03-20T20:55:11.610Z,12.33
2019-03-20T21:00:16.778Z,12.23
2019-03-20T21:05:12.808Z,11.77
2019-03-20T21:10:14.051Z,12.80
2019-03-20T21:15:33.362Z,11.43
2019-03-20T21:20:29.286Z,12.80
2019-03-20T21:25:26.302Z,13.90
2019-03-20T21:30:51.217Z,14.13
2019-03-20T21:36:07.817Z,13.80
2019-03-20T21:41:16.756Z,13.50
2019-03-20T21:46:19.443Z,11.60
2019-03-20T21:51:15.963Z,13.73
2019-03-20T21:56:18.492Z,12.60
2019-03-20T22:01:39.040Z,12.23
2019-03-20T22:06:56.574Z,13.30
2019-03-20T22:12:15.936Z,12.53
2019-03-20T22:17:32.569Z,12.60
2019-03-20T22:22:35.284Z,13.97
2019-03-20T22:27:35.042Z,12.80
2019-03-20T22:33:08.503Z,10.00
2019-03-20T22:38:07.912Z,11.97
2019-03-20T22:43:13.490Z,13.87
2019-03-20T22:48:32.577Z,13.30
2019-03-20T22:53:35.097Z,12.00
2019-03-20T22:58:44.589Z,12.53
2019-03-20T23:03:53.063Z,10.47
2019-03-20T23:08:48.988Z,10.43
2019-03-20T23:13:44.908Z,12.77
2019-03-20T23:18:40.825Z,12.30
2019-03-20T23:23:37.515Z,11.47
2019-03-20T23:28:33.436Z,12.27
2019-03-20T23:33:29.357Z,12.83
2019-03-20T23:38:25.319Z,12.37
2019-03-20T23:43:21.232Z,11.03
2019-03-20T23:48:37.829Z,12.13
2019-03-20T23:53:34.562Z,11.50
2019-03-20T23:58:30.522Z,12.20
